Time;durP1;ratioP1;P1;durP2;ratioP2;P2;SDS_P1;SDS_P2;PMS_P1;PMS_P2;Temp;Humidity;BMP_temperature;BMP_pressure;BME280_temperature;BME280_humidity;BME280_pressure;Samples;Min_cycle;Max_cycle;Signal;HPM_P1;HPM_P2
2021/05/02 00:01:33;;;;;;;13.05;10.38;;;;;;;6.88;57.40;99098.56;5014276;28;20041;-61
2021/05/02 00:03:58;;;;;;;11.55;9.32;;;;;;;6.84;57.29;99102.69;5013629;28;20432;-61
2021/05/02 00:06:23;;;;;;;12.85;9.35;;;;;;;6.77;57.81;99099.31;5014204;28;20053;-61
2021/05/02 00:08:49;;;;;;;12.07;9.68;;;;;;;6.69;58.02;99095.88;5014513;28;20108;-61
2021/05/02 00:11:14;;;;;;;13.27;9.40;;;;;;;6.79;57.39;99092.72;5012884;28;20046;-61
2021/05/02 00:13:40;;;;;;;12.05;9.73;;;;;;;6.74;57.74;99089.91;5014565;28;20042;-61
2021/05/02 00:16:05;;;;;;;12.10;9.90;;;;;;;6.74;58.09;99091.72;5013969;28;20046;-61
2021/05/02 00:18:32;;;;;;;12.80;8.73;;;;;;;6.77;57.55;99096.63;5014309;28;20072;-61
2021/05/02 00:20:57;;;;;;;11.43;9.48;;;;;;;6.69;58.07;99090.56;5013980;28;20296;-61
2021/05/02 00:23:23;;;;;;;12.45;9.40;;;;;;;6.66;58.01;99092.81;4996811;28;20048;-61
2021/05/02 00:25:49;;;;;;;12.68;9.02;;;;;;;6.62;57.93;99100.47;5013624;28;20421;-61
2021/05/02 00:28:15;;;;;;;12.13;9.15;;;;;;;6.65;59.15;99105.34;5014200;28;20038;-61
2021/05/02 00:30:40;;;;;;;10.77;8.85;;;;;;;6.63;57.85;99107.41;5013638;28;20070;-61
2021/05/02 00:33:06;;;;;;;10.65;8.60;;;;;;;6.61;58.35;99109.47;5012964;28;20026;-60
2021/05/02 00:35:32;;;;;;;12.18;9.25;;;;;;;6.58;58.44;99109.91;5012477;28;20034;-61
2021/05/02 00:37:57;;;;;;;12.43;9.13;;;;;;;6.53;58.40;99107.09;4996809;28;20077;-60
2021/05/02 00:40:38;;;;;;;13.00;9.02;;;;;;;6.51;58.60;99103.81;5013805;28;20038;-61
2021/05/02 00:43:07;;;;;;;10.88;9.30;;;;;;;6.48;58.67;99101.59;5014068;28;20046;-61
2021/05/02 00:45:32;;;;;;;13.50;8.80;;;;;;;6.41;58.64;99100.84;5013523;28;20109;-61
2021/05/02 00:48:06;;;;;;;11.18;9.30;;;;;;;6.40;59.06;99096.56;5013896;28;20050;-60
2021/05/02 00:50:47;;;;;;;12.60;8.88;;;;;;;6.35;59.18;99099.06;5013715;28;20034;-60
2021/05/02 00:53:13;;;;;;;;;;;;;;;6.30;59.34;99096.25;4997409;28;20026;-61
2021/05/02 00:55:42;;;;;;;10.98;7.78;;;;;;;6.37;59.30;99103.13;5012297;28;19980;-61
2021/05/02 00:58:09;;;;;;;12.73;9.32;;;;;;;6.32;59.36;99094.19;4996113;28;20117;-61
2021/05/02 01:00:39;;;;;;;12.80;8.50;;;;;;;6.29;59.19;99094.59;5013151;28;20550;-61
2021/05/02 01:03:05;;;;;;;11.38;8.70;;;;;;;6.29;59.50;99095.44;5013631;28;20468;-61
2021/05/02 01:05:32;;;;;;;13.27;9.35;;;;;;;6.29;59.26;99099.94;5013153;28;20038;-61
2021/05/02 01:07:59;;;;;;;12.88;9.23;;;;;;;6.30;59.45;99104.22;5013394;28;20046;-60
2021/05/02 01:10:25;;;;;;;11.85;8.57;;;;;;;6.25;59.66;99100.38;5013043;28;20065;-60
2021/05/02 01:12:55;;;;;;;10.73;8.90;;;;;;;6.21;59.55;99104.47;5013331;28;20067;-61
2021/05/02 01:15:23;;;;;;;12.15;8.75;;;;;;;6.23;60.13;99102.41;5011985;28;20061;-60
2021/05/02 01:17:58;;;;;;;11.52;8.93;;;;;;;6.22;59.90;99106.13;4995706;28;20022;-61
2021/05/02 01:20:23;;;;;;;11.93;8.77;;;;;;;6.19;60.11;99108.38;5013186;28;20058;-61
2021/05/02 01:22:50;;;;;;;11.23;8.70;;;;;;;6.14;60.80;99111.72;5013254;28;20040;-61
2021/05/02 01:25:16;;;;;;;11.20;8.85;;;;;;;6.10;60.61;99112.38;5012835;28;20030;-61
2021/05/02 01:27:41;;;;;;;12.68;9.52;;;;;;;6.07;60.78;99112.81;5012005;28;20357;-61
2021/05/02 01:30:08;;;;;;;13.55;9.35;;;;;;;6.07;60.60;99113.63;5011354;28;20380;-60
2021/05/02 01:32:34;;;;;;;13.70;10.00;;;;;;;6.15;60.94;99115.19;5013259;28;20053;-61
2021/05/02 01:34:59;;;;;;;14.02;10.10;;;;;;;6.08;62.11;99120.56;5013054;28;20056;-61
2021/05/02 01:37:25;;;;;;;11.82;9.52;;;;;;;5.96;62.03;99119.63;5012650;28;20099;-60
2021/05/02 01:39:50;;;;;;;17.23;10.98;;;;;;;5.92;61.94;99121.06;5013046;28;20026;-61
2021/05/02 01:42:16;;;;;;;12.73;10.00;;;;;;;5.93;62.10;99117.34;5012531;28;20061;-61
2021/05/02 01:44:41;;;;;;;13.43;10.02;;;;;;;5.93;62.37;99122.69;5011922;28;20033;-61
2021/05/02 01:47:17;;;;;;;13.60;9.63;;;;;;;5.83;62.74;99123.16;5012776;28;20042;-60
2021/05/02 01:49:52;;;;;;;13.45;9.55;;;;;;;5.78;62.97;99131.75;5012012;28;20029;-60
2021/05/02 01:52:18;;;;;;;14.93;10.35;;;;;;;5.74;63.24;99127.09;5012814;28;20646;-60
2021/05/02 01:54:44;;;;;;;12.88;10.32;;;;;;;5.74;63.34;99130.56;4995396;28;20034;-62
2021/05/02 01:57:09;;;;;;;15.80;10.55;;;;;;;5.69;64.42;99130.41;5012520;28;20050;-62
2021/05/02 01:59:36;;;;;;;11.75;10.27;;;;;;;5.66;64.11;99133.47;4995664;28;20480;-62
2021/05/02 02:02:02;;;;;;;12.20;9.80;;;;;;;5.58;63.94;99131.06;5011408;28;20045;-62
2021/05/02 02:04:29;;;;;;;13.90;10.55;;;;;;;5.59;64.60;99132.69;5013105;28;20022;-62
2021/05/02 02:06:55;;;;;;;13.38;10.93;;;;;;;5.58;64.89;99139.84;5011280;28;20068;-60
2021/05/02 02:09:20;;;;;;;14.43;11.25;;;;;;;5.53;64.69;99136.19;5008181;28;20133;-59
2021/05/02 02:11:46;;;;;;;17.65;11.20;;;;;;;5.49;65.10;99143.78;4992740;28;20045;-60
2021/05/02 02:14:11;;;;;;;14.25;11.02;;;;;;;5.50;65.12;99149.91;5012336;28;20381;-61
2021/05/02 02:16:37;;;;;;;16.38;9.82;;;;;;;5.44;65.60;99145.44;4996548;28;20508;-60
2021/05/02 02:19:02;;;;;;;17.48;12.27;;;;;;;5.54;65.78;99145.78;4995820;28;20038;-60
2021/05/02 02:21:28;;;;;;;14.27;10.98;;;;;;;5.56;65.79;99141.09;4996615;28;20057;-60
2021/05/02 02:23:56;;;;;;;17.30;13.32;;;;;;;5.44;66.28;99148.09;5012050;28;20646;-60
2021/05/02 02:26:35;;;;;;;17.50;12.50;;;;;;;5.38;66.90;99158.53;4995119;28;20066;-60
2021/05/02 02:29:01;;;;;;;15.85;12.15;;;;;;;5.28;67.25;99146.72;4997091;28;20105;-60
2021/05/02 02:31:31;;;;;;;17.73;11.98;;;;;;;5.22;67.76;99153.72;4995223;28;20090;-60
2021/05/02 02:33:57;;;;;;;18.27;13.93;;;;;;;5.19;67.87;99159.41;5011636;28;20431;-60
2021/05/02 02:36:22;;;;;;;18.80;12.90;;;;;;;5.19;67.99;99167.38;4994996;28;20037;-60
2021/05/02 02:38:48;;;;;;;18.15;13.40;;;;;;;5.06;68.28;99154.97;5012112;28;20381;-60
2021/05/02 02:41:15;;;;;;;25.58;14.70;;;;;;;5.11;68.70;99162.31;5011518;28;20045;-60
2021/05/02 02:44:01;;;;;;;22.08;14.40;;;;;;;5.00;69.07;99168.28;4996700;28;20026;-60
2021/05/02 02:46:26;;;;;;;21.58;14.52;;;;;;;4.99;69.42;99164.78;4994592;28;20035;-60
2021/05/02 02:48:56;;;;;;;18.58;14.50;;;;;;;5.07;69.18;99171.75;4995411;28;20113;-60
2021/05/02 02:51:24;;;;;;;24.20;15.53;;;;;;;5.06;69.35;99172.75;4996104;28;20050;-60
2021/05/02 02:53:51;;;;;;;20.55;14.02;;;;;;;4.87;69.66;99172.59;4996352;28;20272;-60
2021/05/02 02:56:20;;;;;;;20.08;14.95;;;;;;;4.84;70.05;99178.31;4994516;28;20046;-60
2021/05/02 02:59:03;;;;;;;27.42;14.70;;;;;;;4.73;70.19;99179.75;4996372;28;20041;-60
2021/05/02 03:01:28;;;;;;;26.63;16.48;;;;;;;4.69;70.91;99188.31;5010001;28;20043;-60
2021/05/02 03:03:55;;;;;;;21.35;15.40;;;;;;;4.55;71.25;99190.16;4996421;28;20026;-60
2021/05/02 03:06:20;;;;;;;24.08;16.45;;;;;;;4.62;71.14;99192.81;4995755;28;20541;-60
2021/05/02 03:08:47;;;;;;;24.38;16.83;;;;;;;4.59;71.44;99193.22;4994796;28;20070;-60
2021/05/02 03:11:13;;;;;;;25.83;17.38;;;;;;;4.47;72.41;99199.16;4995787;28;20121;-60
2021/05/02 03:13:38;;;;;;;23.38;16.38;;;;;;;4.47;72.03;99199.16;4994729;28;20026;-60
2021/05/02 03:16:04;;;;;;;23.95;16.83;;;;;;;4.50;72.05;99198.75;4994639;28;20508;-60
2021/05/02 03:18:32;;;;;;;24.35;16.45;;;;;;;4.40;72.45;99203.63;4996156;28;20501;-60
2021/05/02 03:21:03;;;;;;;23.63;17.30;;;;;;;4.42;72.36;99206.06;5010386;28;20038;-60
2021/05/02 03:23:32;;;;;;;24.38;16.20;;;;;;;4.39;72.38;99212.59;4993491;28;20042;-60
2021/05/02 03:26:01;;;;;;;23.55;16.45;;;;;;;4.34;72.42;99217.69;4995475;28;20043;-60
2021/05/02 03:28:46;;;;;;;21.20;15.43;;;;;;;4.23;72.59;99221.78;4995790;28;20485;-60
2021/05/02 03:31:12;;;;;;;24.65;16.52;;;;;;;4.16;73.01;99222.78;4995452;28;20035;-60
2021/05/02 03:33:41;;;;;;;24.23;16.73;;;;;;;4.08;73.42;99226.44;4995695;28;20076;-60
2021/05/02 03:36:10;;;;;;;23.33;16.23;;;;;;;4.08;74.07;99226.44;4995304;28;20069;-60
2021/05/02 03:38:45;;;;;;;23.83;17.15;;;;;;;3.98;74.16;99226.00;4995579;28;20362;-60
2021/05/02 03:41:10;;;;;;;24.58;18.33;;;;;;;3.89;74.48;99226.19;4995342;28;20125;-60
2021/05/02 03:43:37;;;;;;;26.35;17.70;;;;;;;3.89;74.50;99228.00;4995779;28;20034;-60
2021/05/02 03:46:03;;;;;;;26.23;18.45;;;;;;;3.78;75.29;99239.19;4995202;28;20030;-60
2021/05/02 03:48:28;;;;;;;25.58;18.25;;;;;;;3.71;75.61;99243.63;4995449;28;20030;-60
2021/05/02 03:50:54;;;;;;;27.60;18.55;;;;;;;3.77;75.50;99242.84;5010034;28;20058;-60
2021/05/02 03:53:19;;;;;;;28.20;18.48;;;;;;;3.81;75.03;99246.75;4995216;28;20473;-60
2021/05/02 03:55:46;;;;;;;24.77;18.10;;;;;;;3.76;75.97;99243.88;4994838;28;20067;-60
2021/05/02 03:58:12;;;;;;;26.85;18.40;;;;;;;3.65;75.61;99251.38;4995335;28;20030;-60
2021/05/02 04:00:38;;;;;;;25.67;17.67;;;;;;;3.62;75.92;99251.78;4994779;28;20042;-60
2021/05/02 04:03:04;;;;;;;24.05;17.90;;;;;;;3.74;76.67;99264.44;4995177;28;20069;-60
2021/05/02 04:05:29;;;;;;;23.13;17.40;;;;;;;3.73;76.03;99258.34;4994751;28;20038;-60
2021/05/02 04:07:55;;;;;;;28.02;19.30;;;;;;;3.72;75.61;99264.66;5002483;28;20087;-60
2021/05/02 04:10:20;;;;;;;26.63;19.30;;;;;;;3.78;75.51;99271.00;4996778;28;20096;-60
2021/05/02 04:12:46;;;;;;;30.77;20.55;;;;;;;3.73;76.32;99268.94;5014753;28;20092;-60
2021/05/02 04:15:12;;;;;;;27.27;19.00;;;;;;;3.67;77.00;99273.19;5014009;28;20072;-60
2021/05/02 04:17:37;;;;;;;26.80;20.17;;;;;;;3.78;76.85;99278.97;5014279;28;20026;-60
2021/05/02 04:20:03;;;;;;;27.77;19.67;;;;;;;3.74;76.37;99283.00;5013924;28;20080;-60
2021/05/02 04:22:30;;;;;;;29.85;20.10;;;;;;;3.82;75.94;99280.19;5014186;28;20033;-60
2021/05/02 04:24:56;;;;;;;28.85;20.25;;;;;;;3.91;75.61;99281.66;4997215;28;20064;-60
2021/05/02 04:27:21;;;;;;;26.77;19.55;;;;;;;3.76;76.76;99283.63;5013764;28;20068;-60
2021/05/02 04:29:47;;;;;;;31.10;21.75;;;;;;;3.74;76.53;99283.00;4996839;28;20468;-60
2021/05/02 04:32:15;;;;;;;30.05;21.50;;;;;;;3.92;77.00;99285.13;5013620;28;20033;-60
2021/05/02 04:34:40;;;;;;;29.65;19.85;;;;;;;3.95;75.95;99285.56;5013835;28;20080;-60
2021/05/02 04:37:06;;;;;;;31.75;21.70;;;;;;;3.93;76.34;99292.06;5013592;28;20045;-60
2021/05/02 04:39:31;;;;;;;32.65;22.02;;;;;;;3.97;76.29;99294.13;5014235;28;20038;-60
2021/05/02 04:41:57;;;;;;;28.85;21.20;;;;;;;4.00;75.78;99296.38;5013538;28;20549;-60
2021/05/02 04:44:23;;;;;;;28.27;20.33;;;;;;;3.94;76.08;99299.81;5013916;28;20030;-60
2021/05/02 04:46:48;;;;;;;31.17;21.95;;;;;;;3.95;75.77;99312.09;5013292;28;20046;-60
2021/05/02 04:49:14;;;;;;;29.70;21.33;;;;;;;3.91;76.22;99305.53;4995744;28;20072;-60
2021/05/02 04:51:39;;;;;;;32.45;22.75;;;;;;;3.81;76.95;99310.38;4995742;28;20038;-60
2021/05/02 04:54:06;;;;;;;34.22;23.52;;;;;;;3.86;76.74;99318.56;4996226;28;20062;-60
2021/05/02 04:56:31;;;;;;;31.75;22.77;;;;;;;4.01;76.75;99310.47;5013324;28;20060;-60
2021/05/02 04:58:56;;;;;;;29.98;21.38;;;;;;;4.18;75.95;99321.56;5013695;28;20034;-60
2021/05/02 05:01:22;;;;;;;32.63;22.58;;;;;;;4.34;75.16;99329.16;5013374;28;20037;-60
2021/05/02 05:03:47;;;;;;;29.02;21.13;;;;;;;4.51;75.09;99327.75;5013678;28;20484;-60
2021/05/02 05:06:13;;;;;;;27.83;21.02;;;;;;;4.52;74.94;99323.31;5013158;28;20118;-60
2021/05/02 05:08:38;;;;;;;31.75;21.98;;;;;;;4.66;74.07;99330.25;5013454;28;20084;-60
2021/05/02 05:11:04;;;;;;;26.83;19.67;;;;;;;4.77;74.31;99342.13;5011937;28;20063;-60
2021/05/02 05:13:29;;;;;;;27.48;18.70;;;;;;;4.53;74.46;99344.31;5013506;28;20030;-60
2021/05/02 05:15:58;;;;;;;30.13;20.55;;;;;;;4.57;74.38;99338.59;5013116;28;20061;-60
2021/05/02 05:18:24;;;;;;;28.17;19.33;;;;;;;4.68;73.89;99333.53;5013500;28;20522;-60
2021/05/02 05:20:50;;;;;;;29.17;19.83;;;;;;;4.79;73.62;99336.59;5012968;28;20065;-60
2021/05/02 05:23:15;;;;;;;27.15;20.08;;;;;;;4.72;73.75;99349.91;5013522;28;20081;-60
2021/05/02 05:25:41;;;;;;;28.70;18.60;;;;;;;4.68;75.09;99353.97;5013068;28;20481;-60
2021/05/02 05:28:06;;;;;;;28.30;19.75;;;;;;;4.79;73.52;99353.34;5013422;28;20084;-60
2021/05/02 05:30:32;;;;;;;29.67;19.58;;;;;;;4.62;74.40;99355.59;5013012;28;20042;-60
2021/05/02 05:33:03;;;;;;;25.40;19.17;;;;;;;4.67;74.93;99362.94;5013348;28;20034;-60
2021/05/02 05:35:29;;;;;;;27.70;20.23;;;;;;;4.63;74.36;99361.72;5012757;28;20038;-60
2021/05/02 05:37:54;;;;;;;28.77;20.45;;;;;;;4.66;74.05;99370.06;5013218;28;20037;-61
2021/05/02 05:40:20;;;;;;;29.30;21.17;;;;;;;4.90;72.67;99358.09;5012729;28;20050;-60
2021/05/02 05:42:45;;;;;;;25.73;19.90;;;;;;;4.98;72.35;99355.22;5013201;28;20083;-60
2021/05/02 05:45:11;;;;;;;25.38;19.65;;;;;;;4.93;72.73;99365.63;5012726;28;20052;-60
2021/05/02 05:47:37;;;;;;;30.00;20.05;;;;;;;4.81;73.14;99359.28;5015505;28;20021;-60
2021/05/02 05:50:03;;;;;;;28.63;18.92;;;;;;;4.82;73.19;99366.25;5016763;28;20408;-60
2021/05/02 05:52:28;;;;;;;27.20;19.55;;;;;;;5.02;73.37;99370.75;5017033;28;20033;-60
2021/05/02 05:54:53;;;;;;;24.90;18.17;;;;;;;5.17;72.84;99368.75;5017235;28;20026;-60
2021/05/02 05:57:19;;;;;;;28.38;18.73;;;;;;;5.51;71.37;99366.88;5016486;28;20076;-60
2021/05/02 05:59:44;;;;;;;28.50;18.83;;;;;;;5.54;72.40;99371.78;5016970;28;20036;-60
2021/05/02 06:02:10;;;;;;;27.70;18.48;;;;;;;5.30;71.44;99374.06;5016411;28;20034;-61
2021/05/02 06:04:35;;;;;;;24.02;17.65;;;;;;;5.41;72.97;99376.06;5016852;28;20026;-61
2021/05/02 06:07:01;;;;;;;24.95;18.38;;;;;;;5.34;72.38;99379.75;5016327;28;20042;-61
2021/05/02 06:09:26;;;;;;;26.27;18.55;;;;;;;5.68;71.45;99384.03;5017020;28;20026;-60
2021/05/02 06:11:52;;;;;;;24.73;18.23;;;;;;;5.75;70.64;99378.72;5016305;28;20385;-60
2021/05/02 06:14:18;;;;;;;25.52;18.05;;;;;;;5.47;71.60;99376.31;5016698;28;20026;-60
2021/05/02 06:16:43;;;;;;;24.58;18.10;;;;;;;5.61;72.17;99385.88;5016183;28;20041;-60
2021/05/02 06:19:09;;;;;;;24.90;18.17;;;;;;;5.43;72.23;99393.69;5016638;28;20036;-60
2021/05/02 06:21:34;;;;;;;28.02;19.83;;;;;;;5.47;72.55;99392.25;5016293;28;20034;-60
2021/05/02 06:24:00;;;;;;;27.63;17.95;;;;;;;5.41;72.38;99391.22;5016601;28;20520;-60
2021/05/02 06:26:26;;;;;;;27.48;18.45;;;;;;;5.49;73.75;99393.69;5016097;28;20393;-60
2021/05/02 06:28:51;;;;;;;30.23;19.45;;;;;;;5.45;74.23;99399.63;5016576;28;20033;-60
2021/05/02 06:31:17;;;;;;;27.73;19.75;;;;;;;5.48;74.46;99396.53;5016019;28;20399;-60
2021/05/02 06:33:43;;;;;;;25.95;19.17;;;;;;;5.62;73.28;99404.31;5016273;28;20480;-60
2021/05/02 06:36:08;;;;;;;28.85;19.27;;;;;;;5.65;73.09;99413.72;5016108;28;20053;-60
2021/05/02 06:38:34;;;;;;;26.90;18.27;;;;;;;5.78;72.42;99410.22;5016215;28;20497;-60
2021/05/02 06:41:00;;;;;;;28.92;18.95;;;;;;;6.01;71.88;99412.47;5015577;28;20042;-60
2021/05/02 06:43:25;;;;;;;24.08;18.35;;;;;;;6.05;71.31;99405.69;5016202;28;20388;-60
2021/05/02 06:45:51;;;;;;;27.45;18.33;;;;;;;6.16;70.60;99418.34;5015687;28;20117;-60
2021/05/02 06:48:16;;;;;;;24.30;16.75;;;;;;;6.14;70.43;99417.78;5016051;28;20026;-60
2021/05/02 06:50:41;;;;;;;21.98;15.73;;;;;;;6.24;69.80;99420.81;5015669;28;20034;-60
2021/05/02 06:53:07;;;;;;;24.50;15.80;;;;;;;6.42;68.57;99419.31;5015970;28;20030;-60
2021/05/02 06:55:32;;;;;;;18.80;10.98;;;;;;;6.33;65.51;99410.72;5015611;28;20046;-60
2021/05/02 06:58:01;;;;;;;16.42;10.80;;;;;;;6.83;64.62;99426.09;5015575;28;20033;-60
2021/05/02 07:00:27;;;;;;;14.52;9.93;;;;;;;7.19;62.59;99413.97;5015552;28;20042;-60
2021/05/02 07:02:53;;;;;;;13.52;8.75;;;;;;;7.82;59.42;99413.06;4998194;28;20036;-60
2021/05/02 07:05:18;;;;;;;16.67;8.88;;;;;;;8.07;59.38;99416.50;5015566;28;20022;-60
2021/05/02 07:07:43;;;;;;;11.20;8.40;;;;;;;9.98;52.54;99431.94;5015770;28;20108;-60
2021/05/02 07:10:09;;;;;;;12.63;8.00;;;;;;;12.95;43.52;99436.91;5015462;28;20045;-61
2021/05/02 07:12:35;;;;;;;11.63;7.30;;;;;;;11.10;48.25;99435.31;5015802;28;20021;-60
2021/05/02 07:15:00;;;;;;;12.23;7.47;;;;;;;9.61;53.12;99434.00;5015742;28;20022;-60
2021/05/02 07:17:25;;;;;;;10.98;7.38;;;;;;;8.08;57.35;99433.34;5015130;28;20052;-60
2021/05/02 07:19:51;;;;;;;12.18;7.53;;;;;;;7.72;58.08;99432.25;5015823;28;20026;-60
2021/05/02 07:22:18;;;;;;;13.60;7.75;;;;;;;7.70;58.56;99436.97;5015102;28;20396;-60
2021/05/02 07:24:45;;;;;;;20.35;7.25;;;;;;;7.44;58.87;99438.84;5015409;28;20026;-60
2021/05/02 07:27:10;;;;;;;11.93;7.65;;;;;;;6.97;60.27;99433.00;5013857;28;20107;-60
2021/05/02 07:29:35;;;;;;;9.38;7.18;;;;;;;7.02;60.15;99441.16;5014129;28;20026;-60
2021/05/02 07:32:01;;;;;;;12.60;6.85;;;;;;;6.81;60.01;99444.13;5014853;28;20053;-60
2021/05/02 07:34:26;;;;;;;11.15;7.10;;;;;;;6.66;60.53;99452.38;5015386;28;20530;-60
2021/05/02 07:36:55;;;;;;;12.27;7.47;;;;;;;6.67;59.66;99454.84;5014415;28;20041;-61
2021/05/02 07:39:20;;;;;;;12.43;7.05;;;;;;;6.79;59.44;99447.03;5015054;28;20034;-60
2021/05/02 07:41:46;;;;;;;9.77;6.30;;;;;;;6.61;59.33;99454.88;5014757;28;20110;-60
2021/05/02 07:44:11;;;;;;;11.50;6.53;;;;;;;6.82;58.71;99451.09;5015131;28;20030;-60
2021/05/02 07:46:37;;;;;;;9.88;6.22;;;;;;;7.23;58.30;99457.84;4997248;28;20050;-60
2021/05/02 07:49:02;;;;;;;10.25;5.22;;;;;;;7.73;55.03;99452.53;5015004;28;20111;-61
2021/05/02 07:51:28;;;;;;;7.40;4.82;;;;;;;7.73;53.10;99453.34;5014718;28;20030;-60
2021/05/02 07:53:53;;;;;;;7.30;4.68;;;;;;;8.91;50.41;99454.19;5015118;28;20026;-60
2021/05/02 07:56:19;;;;;;;8.35;4.57;;;;;;;7.99;52.77;99462.19;5014506;28;20533;-61
2021/05/02 07:58:44;;;;;;;7.85;4.10;;;;;;;7.44;53.97;99464.66;5014880;28;20389;-61
2021/05/02 08:01:09;;;;;;;11.35;4.60;;;;;;;7.53;54.33;99469.53;4996915;28;20492;-60
2021/05/02 08:03:35;;;;;;;9.20;3.40;;;;;;;7.39;53.06;99465.34;5014761;28;20022;-61
2021/05/02 08:06:00;;;;;;;6.80;3.30;;;;;;;8.63;48.67;99465.41;5013102;28;20045;-60
2021/05/02 08:08:27;;;;;;;6.50;3.50;;;;;;;9.05;46.99;99460.97;5014482;28;20424;-60
2021/05/02 08:10:52;;;;;;;6.93;3.30;;;;;;;8.43;49.47;99473.66;5013532;28;20041;-61
2021/05/02 08:13:18;;;;;;;7.43;3.50;;;;;;;9.14;48.83;99477.53;5013364;28;20022;-60
2021/05/02 08:15:44;;;;;;;6.90;3.45;;;;;;;9.98;45.30;99474.78;5013938;28;20116;-60
2021/05/02 08:18:09;;;;;;;7.05;3.60;;;;;;;9.14;47.54;99480.22;4996758;28;20045;-60
2021/05/02 08:20:34;;;;;;;7.55;3.30;;;;;;;9.14;47.99;99479.41;5013995;28;20535;-61
2021/05/02 08:23:00;;;;;;;6.40;3.33;;;;;;;8.60;49.18;99474.69;5014418;28;20472;-61
2021/05/02 08:25:25;;;;;;;7.50;4.07;;;;;;;8.41;49.31;99475.72;5013875;28;20045;-61
2021/05/02 08:27:51;;;;;;;7.18;3.60;;;;;;;8.24;51.00;99480.00;5013039;28;20041;-61
2021/05/02 08:30:16;;;;;;;7.95;4.45;;;;;;;8.07;50.98;99490.44;5013813;28;20026;-60
2021/05/02 08:32:42;;;;;;;6.43;3.97;;;;;;;8.08;51.56;99492.06;5014396;28;20022;-60
2021/05/02 08:35:08;;;;;;;8.75;4.50;;;;;;;7.82;51.42;99487.78;5013186;28;20049;-61
2021/05/02 08:37:35;;;;;;;9.07;4.80;;;;;;;7.61;52.78;99486.28;5012798;28;20026;-60
2021/05/02 08:40:01;;;;;;;7.10;3.70;;;;;;;7.38;52.72;99495.69;5013538;28;20108;-62
2021/05/02 08:42:27;;;;;;;9.70;3.75;;;;;;;7.68;51.88;99503.06;4996599;28;20022;-61
2021/05/02 08:44:52;;;;;;;5.88;3.83;;;;;;;7.62;52.70;99503.94;5013991;28;20034;-61
2021/05/02 08:47:18;;;;;;;9.57;3.30;;;;;;;7.69;52.78;99504.72;4996046;28;20041;-62
2021/05/02 08:49:44;;;;;;;9.48;3.83;;;;;;;8.04;52.07;99509.53;5014079;28;20025;-62
2021/05/02 08:52:09;;;;;;;8.20;4.10;;;;;;;8.19;51.32;99510.88;5013441;28;20071;-62
2021/05/02 08:54:35;;;;;;;6.63;3.42;;;;;;;8.30;51.82;99503.97;5013867;28;20021;-62
2021/05/02 08:57:00;;;;;;;5.18;2.80;;;;;;;8.75;49.49;99509.06;5013289;28;20104;-61
2021/05/02 08:59:26;;;;;;;6.75;3.08;;;;;;;8.86;49.07;99510.16;5013715;28;20026;-61
2021/05/02 09:01:55;;;;;;;4.82;3.20;;;;;;;8.59;50.18;99515.03;5012172;28;20069;-62
2021/05/02 09:04:20;;;;;;;3.75;2.70;;;;;;;8.58;50.70;99516.84;5013697;28;20372;-61
2021/05/02 09:06:46;;;;;;;7.13;2.97;;;;;;;8.96;49.58;99520.31;4995773;28;20038;-61
2021/05/02 09:09:12;;;;;;;6.18;2.95;;;;;;;9.96;47.29;99514.38;5013443;28;20053;-61
2021/05/02 09:11:39;;;;;;;5.32;2.70;;;;;;;9.95;47.74;99523.44;4995702;28;20042;-62
2021/05/02 09:14:10;;;;;;;8.50;2.85;;;;;;;9.53;47.83;99504.75;4996063;28;20022;-62
2021/05/02 09:16:58;;;;;;;6.32;2.60;;;;;;;9.00;49.26;99522.34;5013056;28;20042;-62
2021/05/02 09:19:31;;;;;;;6.03;2.53;;;;;;;9.45;48.11;99518.44;5013749;28;20061;-61
2021/05/02 09:22:13;;;;;;;7.25;2.90;;;;;;;9.17;48.64;99514.50;5012989;28;20049;-62
2021/05/02 09:24:38;;;;;;;5.07;2.50;;;;;;;8.72;47.36;99514.06;4995867;28;20033;-62
2021/05/02 09:27:13;;;;;;;6.75;2.90;;;;;;;8.72;47.94;99517.53;4995243;28;20404;-61
2021/05/02 09:29:41;;;;;;;4.45;2.67;;;;;;;9.10;47.65;99511.09;5013454;28;20030;-62
2021/05/02 09:32:07;;;;;;;4.90;2.40;;;;;;;9.89;44.80;99521.72;5013056;28;20485;-62
2021/05/02 09:34:33;;;;;;;5.20;2.47;;;;;;;10.23;42.53;99511.25;4995774;28;20026;-62
2021/05/02 09:37:06;;;;;;;5.22;2.30;;;;;;;9.57;42.35;99527.34;5012741;28;20038;-62
2021/05/02 09:39:49;;;;;;;5.03;2.35;;;;;;;9.16;43.93;99520.91;5013503;28;20021;-62
2021/05/02 09:42:24;;;;;;;4.63;2.17;;;;;;;8.92;44.81;99525.31;5012793;28;20116;-62
2021/05/02 09:44:54;;;;;;;3.33;2.10;;;;;;;8.90;45.70;99529.25;5011881;28;20453;-62
2021/05/02 09:47:29;;;;;;;6.80;2.63;;;;;;;8.80;45.59;99521.75;5012584;28;20041;-62
2021/05/02 09:50:02;;;;;;;5.57;2.42;;;;;;;8.68;45.88;99529.69;5013422;28;20084;-62
2021/05/02 09:52:42;;;;;;;6.60;2.95;;;;;;;8.46;46.42;99533.84;5012777;28;20615;-61
2021/05/02 09:55:46;;;;;;;4.65;2.60;;;;;;;8.52;46.80;99532.97;5012709;28;20065;-62
2021/05/02 09:58:20;;;;;;;6.45;2.65;;;;;;;8.98;45.37;99531.63;5013104;28;20436;-62
2021/05/02 10:00:55;;;;;;;5.68;2.80;;;;;;;9.14;43.53;99528.34;5012534;28;20064;-62
2021/05/02 10:03:23;;;;;;;4.20;2.70;;;;;;;9.12;43.95;99533.09;5011906;28;20054;-61
2021/05/02 10:05:56;;;;;;;4.68;2.63;;;;;;;9.29;44.64;99522.59;5012497;28;20169;-62
2021/05/02 10:08:24;;;;;;;4.90;2.50;;;;;;;8.53;43.13;99531.91;5012789;28;20500;-60
2021/05/02 10:10:50;;;;;;;6.07;2.80;;;;;;;9.29;44.11;99547.47;5012392;28;20515;-60
2021/05/02 10:13:15;;;;;;;5.72;2.70;;;;;;;9.15;43.75;99540.66;5012891;28;20022;-61
2021/05/02 10:15:41;;;;;;;6.40;2.60;;;;;;;9.26;43.80;99544.41;5012526;28;20034;-61
2021/05/02 10:18:06;;;;;;;5.88;2.85;;;;;;;9.10;44.50;99545.88;5012713;28;20469;-61
2021/05/02 10:20:31;;;;;;;7.05;2.80;;;;;;;9.00;44.91;99545.59;5012405;28;20073;-61
2021/05/02 10:22:57;;;;;;;4.25;2.50;;;;;;;8.88;45.22;99544.69;5012750;28;20034;-62
2021/05/02 10:25:22;;;;;;;6.80;3.28;;;;;;;8.90;44.42;99550.66;4995174;28;20034;-62
2021/05/02 10:27:49;;;;;;;8.20;2.97;;;;;;;9.20;44.65;99556.84;4995271;28;20018;-60
2021/05/02 10:30:40;;;;;;;7.78;3.38;;;;;;;9.36;43.31;99549.22;5011158;28;20026;-62
2021/05/02 10:33:10;;;;;;;6.43;3.13;;;;;;;9.81;42.15;99560.34;5013143;28;20372;-61
2021/05/02 10:35:51;;;;;;;7.32;4.03;;;;;;;10.16;40.47;99551.56;5016224;28;20034;-61
2021/05/02 10:38:19;;;;;;;5.03;2.97;;;;;;;10.09;40.08;99546.28;5016309;28;20037;-61
2021/05/02 10:40:45;;;;;;;8.48;3.55;;;;;;;10.56;39.35;99546.34;5015873;28;20072;-61
2021/05/02 10:43:24;;;;;;;8.15;3.03;;;;;;;9.91;40.15;99549.06;5015877;28;20018;-61
2021/05/02 10:45:49;;;;;;;6.70;2.92;;;;;;;10.50;40.46;99544.56;4998098;28;20464;-61
2021/05/02 10:48:15;;;;;;;10.43;2.90;;;;;;;10.05;42.16;99550.47;5015171;28;20018;-61
2021/05/02 10:50:42;;;;;;;5.18;3.05;;;;;;;9.92;42.99;99548.81;5015938;28;20084;-61
2021/05/02 10:53:11;;;;;;;5.03;3.00;;;;;;;10.07;42.13;99553.75;5001293;28;20026;-62
2021/05/02 10:55:58;;;;;;;10.00;3.30;;;;;;;9.88;42.51;99554.88;4995829;28;20073;-62
2021/05/02 10:58:25;;;;;;;8.55;3.75;;;;;;;9.39;42.79;99559.50;4996482;28;20030;-62
2021/05/02 11:00:54;;;;;;;6.15;3.10;;;;;;;9.41;43.73;99570.78;4995842;28;20073;-62
2021/05/02 11:03:35;;;;;;;4.38;2.88;;;;;;;9.70;42.82;99567.28;4996147;28;20121;-61
2021/05/02 11:06:00;;;;;;;7.72;3.40;;;;;;;9.29;44.24;99563.53;4995844;28;20112;-62
2021/05/02 11:08:57;;;;;;;6.32;2.90;;;;;;;9.59;44.11;99576.09;4994744;28;20409;-63
2021/05/02 11:11:32;;;;;;;5.38;2.65;;;;;;;9.69;42.48;99573.69;4995808;28;20081;-63
2021/05/02 11:14:18;;;;;;;6.63;3.22;;;;;;;10.00;42.35;99566.41;4996079;28;20072;-62
2021/05/02 11:16:44;;;;;;;5.55;3.38;;;;;;;10.13;40.75;99576.94;4995660;28;20472;-62
2021/05/02 11:19:16;;;;;;;6.57;3.20;;;;;;;10.26;42.35;99577.75;4995958;28;20030;-63
2021/05/02 11:24:23;;;;;;;6.00;3.10;;;;;;;11.58;38.05;99578.94;4996111;28;20033;-61
2021/05/02 11:29:37;;;;;;;7.68;3.05;;;;;;;12.31;34.94;99577.28;4978843;28;20034;-63
2021/05/02 11:32:03;;;;;;;4.82;2.70;;;;;;;11.71;37.10;99570.59;4995372;28;20037;-62
2021/05/02 11:34:51;;;;;;;6.10;2.88;;;;;;;11.81;36.21;99586.91;4978256;28;20031;-62
2021/05/02 11:37:38;;;;;;;6.68;2.70;;;;;;;11.89;35.28;99574.16;4995036;28;20049;-62
2021/05/02 11:40:27;;;;;;;5.82;2.63;;;;;;;11.08;37.11;99575.03;4977623;28;20080;-61